sensor_id;sensor_type;location;lat;lon;timestamp;P1;durP1;ratioP1;P2;durP2;ratioP2
22160;SDS011;49035;48.812;11.762;2023-12-22T00:00:17;2.30;;;0.70;;
22160;SDS011;49035;48.812;11.762;2023-12-22T00:02:43;4.43;;;1.20;;
22160;SDS011;49035;48.812;11.762;2023-12-22T00:05:09;4.57;;;0.90;;
22160;SDS011;49035;48.812;11.762;2023-12-22T00:07:34;2.37;;;0.80;;
22160;SDS011;49035;48.812;11.762;2023-12-22T00:10:00;2.07;;;0.80;;
22160;SDS011;49035;48.812;11.762;2023-12-22T00:12:25;1.03;;;0.90;;
22160;SDS011;49035;48.812;11.762;2023-12-22T00:14:51;4.70;;;1.03;;
22160;SDS011;49035;48.812;11.762;2023-12-22T00:17:17;1.13;;;0.57;;
22160;SDS011;49035;48.812;11.762;2023-12-22T00:19:42;3.43;;;1.27;;
22160;SDS011;49035;48.812;11.762;2023-12-22T00:22:08;1.10;;;0.70;;
22160;SDS011;49035;48.812;11.762;2023-12-22T00:24:33;3.90;;;0.73;;
22160;SDS011;49035;48.812;11.762;2023-12-22T00:26:59;0.80;;;0.70;;
22160;SDS011;49035;48.812;11.762;2023-12-22T00:29:25;3.13;;;1.10;;
22160;SDS011;49035;48.812;11.762;2023-12-22T00:31:53;1.80;;;0.80;;
22160;SDS011;49035;48.812;11.762;2023-12-22T00:34:18;4.73;;;0.97;;
22160;SDS011;49035;48.812;11.762;2023-12-22T00:36:44;4.23;;;0.80;;
22160;SDS011;49035;48.812;11.762;2023-12-22T00:39:10;2.30;;;0.77;;
22160;SDS011;49035;48.812;11.762;2023-12-22T00:41:35;1.90;;;0.97;;
22160;SDS011;49035;48.812;11.762;2023-12-22T00:44:01;4.23;;;1.03;;
22160;SDS011;49035;48.812;11.762;2023-12-22T00:46:26;3.37;;;0.90;;
22160;SDS011;49035;48.812;11.762;2023-12-22T00:48:52;2.73;;;1.20;;
22160;SDS011;49035;48.812;11.762;2023-12-22T00:51:17;3.87;;;0.90;;
22160;SDS011;49035;48.812;11.762;2023-12-22T00:53:43;3.50;;;0.93;;
22160;SDS011;49035;48.812;11.762;2023-12-22T00:56:09;2.10;;;0.63;;
22160;SDS011;49035;48.812;11.762;2023-12-22T00:58:34;4.20;;;1.10;;
22160;SDS011;49035;48.812;11.762;2023-12-22T01:01:00;1.57;;;0.80;;
22160;SDS011;49035;48.812;11.762;2023-12-22T01:03:26;2.67;;;0.90;;
22160;SDS011;49035;48.812;11.762;2023-12-22T01:05:51;6.40;;;0.97;;
22160;SDS011;49035;48.812;11.762;2023-12-22T01:08:17;4.27;;;1.17;;
22160;SDS011;49035;48.812;11.762;2023-12-22T01:10:42;5.07;;;1.17;;
22160;SDS011;49035;48.812;11.762;2023-12-22T01:13:08;3.07;;;1.00;;
22160;SDS011;49035;48.812;11.762;2023-12-22T01:15:34;2.43;;;0.90;;
22160;SDS011;49035;48.812;11.762;2023-12-22T01:17:59;0.70;;;0.70;;
22160;SDS011;49035;48.812;11.762;2023-12-22T01:20:25;4.03;;;0.90;;
22160;SDS011;49035;48.812;11.762;2023-12-22T01:22:50;1.57;;;0.80;;
22160;SDS011;49035;48.812;11.762;2023-12-22T01:25:16;1.47;;;0.83;;
22160;SDS011;49035;48.812;11.762;2023-12-22T01:27:41;2.97;;;1.23;;
22160;SDS011;49035;48.812;11.762;2023-12-22T01:30:07;4.10;;;1.00;;
22160;SDS011;49035;48.812;11.762;2023-12-22T01:32:33;4.07;;;0.80;;
22160;SDS011;49035;48.812;11.762;2023-12-22T01:35:01;2.53;;;0.90;;
22160;SDS011;49035;48.812;11.762;2023-12-22T01:37:31;2.20;;;1.03;;
22160;SDS011;49035;48.812;11.762;2023-12-22T01:39:57;1.60;;;0.80;;
22160;SDS011;49035;48.812;11.762;2023-12-22T01:42:23;2.37;;;0.60;;
22160;SDS011;49035;48.812;11.762;2023-12-22T01:44:48;3.83;;;1.20;;
22160;SDS011;49035;48.812;11.762;2023-12-22T01:47:14;7.30;;;1.27;;
22160;SDS011;49035;48.812;11.762;2023-12-22T01:49:40;1.43;;;0.73;;
22160;SDS011;49035;48.812;11.762;2023-12-22T01:52:06;3.83;;;0.93;;
22160;SDS011;49035;48.812;11.762;2023-12-22T01:54:32;2.50;;;1.03;;
22160;SDS011;49035;48.812;11.762;2023-12-22T01:56:57;4.13;;;1.30;;
22160;SDS011;49035;48.812;11.762;2023-12-22T01:59:23;4.27;;;0.90;;
22160;SDS011;49035;48.812;11.762;2023-12-22T02:01:49;2.27;;;0.97;;
22160;SDS011;49035;48.812;11.762;2023-12-22T02:04:15;1.83;;;1.00;;
22160;SDS011;49035;48.812;11.762;2023-12-22T02:06:41;4.27;;;0.90;;
22160;SDS011;49035;48.812;11.762;2023-12-22T02:09:07;4.33;;;1.00;;
22160;SDS011;49035;48.812;11.762;2023-12-22T02:11:33;4.57;;;1.00;;
22160;SDS011;49035;48.812;11.762;2023-12-22T02:13:58;4.20;;;1.20;;
22160;SDS011;49035;48.812;11.762;2023-12-22T02:16:45;3.33;;;1.20;;
22160;SDS011;49035;48.812;11.762;2023-12-22T02:22:03;2.13;;;0.80;;
22160;SDS011;49035;48.812;11.762;2023-12-22T02:24:30;2.97;;;0.80;;
22160;SDS011;49035;48.812;11.762;2023-12-22T02:26:57;9.17;;;1.13;;
22160;SDS011;49035;48.812;11.762;2023-12-22T02:29:28;2.33;;;0.90;;
22160;SDS011;49035;48.812;11.762;2023-12-22T02:31:57;2.43;;;0.90;;
22160;SDS011;49035;48.812;11.762;2023-12-22T02:34:27;4.63;;;1.03;;
22160;SDS011;49035;48.812;11.762;2023-12-22T02:36:54;2.90;;;0.90;;
22160;SDS011;49035;48.812;11.762;2023-12-22T02:39:20;3.47;;;0.70;;
22160;SDS011;49035;48.812;11.762;2023-12-22T02:41:46;5.17;;;1.03;;
22160;SDS011;49035;48.812;11.762;2023-12-22T02:44:12;1.83;;;0.80;;
22160;SDS011;49035;48.812;11.762;2023-12-22T02:46:37;2.17;;;1.27;;
22160;SDS011;49035;48.812;11.762;2023-12-22T02:49:03;3.13;;;0.80;;
22160;SDS011;49035;48.812;11.762;2023-12-22T02:51:28;4.00;;;0.97;;
22160;SDS011;49035;48.812;11.762;2023-12-22T02:53:54;2.13;;;1.00;;
22160;SDS011;49035;48.812;11.762;2023-12-22T02:56:20;1.57;;;0.90;;
22160;SDS011;49035;48.812;11.762;2023-12-22T02:58:45;1.23;;;0.70;;
22160;SDS011;49035;48.812;11.762;2023-12-22T03:01:11;4.67;;;0.97;;
22160;SDS011;49035;48.812;11.762;2023-12-22T03:03:36;4.53;;;1.00;;
22160;SDS011;49035;48.812;11.762;2023-12-22T03:06:02;2.23;;;0.70;;
22160;SDS011;49035;48.812;11.762;2023-12-22T03:08:27;0.90;;;0.90;;
22160;SDS011;49035;48.812;11.762;2023-12-22T03:10:53;4.27;;;0.90;;
22160;SDS011;49035;48.812;11.762;2023-12-22T03:13:18;1.37;;;0.80;;
22160;SDS011;49035;48.812;11.762;2023-12-22T03:15:44;4.30;;;1.13;;
22160;SDS011;49035;48.812;11.762;2023-12-22T03:18:10;1.93;;;0.90;;
22160;SDS011;49035;48.812;11.762;2023-12-22T03:20:35;5.17;;;0.90;;
22160;SDS011;49035;48.812;11.762;2023-12-22T03:23:01;2.10;;;1.00;;
22160;SDS011;49035;48.812;11.762;2023-12-22T03:25:26;4.43;;;1.60;;
22160;SDS011;49035;48.812;11.762;2023-12-22T03:27:52;2.03;;;0.73;;
22160;SDS011;49035;48.812;11.762;2023-12-22T03:30:17;1.87;;;0.90;;
22160;SDS011;49035;48.812;11.762;2023-12-22T03:32:43;2.00;;;0.70;;
22160;SDS011;49035;48.812;11.762;2023-12-22T03:35:08;1.17;;;0.80;;
22160;SDS011;49035;48.812;11.762;2023-12-22T03:37:34;2.90;;;0.80;;
22160;SDS011;49035;48.812;11.762;2023-12-22T03:40:00;2.30;;;0.67;;
22160;SDS011;49035;48.812;11.762;2023-12-22T03:42:25;2.83;;;0.93;;
22160;SDS011;49035;48.812;11.762;2023-12-22T03:44:51;1.70;;;0.60;;
22160;SDS011;49035;48.812;11.762;2023-12-22T03:47:16;2.37;;;0.77;;
22160;SDS011;49035;48.812;11.762;2023-12-22T03:49:42;0.93;;;0.60;;
22160;SDS011;49035;48.812;11.762;2023-12-22T03:52:08;3.43;;;0.80;;
22160;SDS011;49035;48.812;11.762;2023-12-22T03:54:33;1.50;;;0.60;;
22160;SDS011;49035;48.812;11.762;2023-12-22T03:56:59;5.37;;;0.50;;
22160;SDS011;49035;48.812;11.762;2023-12-22T03:59:25;0.90;;;0.70;;
22160;SDS011;49035;48.812;11.762;2023-12-22T04:01:51;2.83;;;0.83;;
22160;SDS011;49035;48.812;11.762;2023-12-22T04:04:17;1.30;;;0.40;;
22160;SDS011;49035;48.812;11.762;2023-12-22T04:06:43;1.50;;;0.60;;
22160;SDS011;49035;48.812;11.762;2023-12-22T04:09:09;1.30;;;0.60;;
22160;SDS011;49035;48.812;11.762;2023-12-22T04:11:34;0.43;;;0.43;;
22160;SDS011;49035;48.812;11.762;2023-12-22T04:14:02;0.93;;;0.50;;
22160;SDS011;49035;48.812;11.762;2023-12-22T04:16:27;0.60;;;0.60;;
22160;SDS011;49035;48.812;11.762;2023-12-22T04:18:53;0.60;;;0.60;;
22160;SDS011;49035;48.812;11.762;2023-12-22T04:21:18;0.67;;;0.50;;
22160;SDS011;49035;48.812;11.762;2023-12-22T04:23:44;0.40;;;0.40;;
22160;SDS011;49035;48.812;11.762;2023-12-22T04:26:09;1.03;;;0.40;;
22160;SDS011;49035;48.812;11.762;2023-12-22T04:28:35;0.83;;;0.63;;
22160;SDS011;49035;48.812;11.762;2023-12-22T04:31:01;0.50;;;0.50;;
22160;SDS011;49035;48.812;11.762;2023-12-22T04:33:27;0.43;;;0.43;;
22160;SDS011;49035;48.812;11.762;2023-12-22T04:35:52;0.63;;;0.43;;
22160;SDS011;49035;48.812;11.762;2023-12-22T04:38:18;0.50;;;0.50;;
22160;SDS011;49035;48.812;11.762;2023-12-22T04:40:43;0.40;;;0.40;;
22160;SDS011;49035;48.812;11.762;2023-12-22T04:43:10;1.13;;;0.50;;
22160;SDS011;49035;48.812;11.762;2023-12-22T04:45:36;1.53;;;0.47;;
22160;SDS011;49035;48.812;11.762;2023-12-22T04:48:01;0.40;;;0.40;;
22160;SDS011;49035;48.812;11.762;2023-12-22T04:50:27;0.50;;;0.50;;
22160;SDS011;49035;48.812;11.762;2023-12-22T04:52:53;0.47;;;0.47;;
22160;SDS011;49035;48.812;11.762;2023-12-22T04:55:18;0.50;;;0.50;;
22160;SDS011;49035;48.812;11.762;2023-12-22T04:57:44;0.50;;;0.50;;
22160;SDS011;49035;48.812;11.762;2023-12-22T05:00:09;0.47;;;0.47;;
22160;SDS011;49035;48.812;11.762;2023-12-22T05:02:35;0.40;;;0.40;;
22160;SDS011;49035;48.812;11.762;2023-12-22T05:05:01;0.40;;;0.40;;
22160;SDS011;49035;48.812;11.762;2023-12-22T05:07:28;0.40;;;0.40;;
22160;SDS011;49035;48.812;11.762;2023-12-22T05:09:54;0.83;;;0.60;;
22160;SDS011;49035;48.812;11.762;2023-12-22T05:12:20;0.30;;;0.30;;
22160;SDS011;49035;48.812;11.762;2023-12-22T05:14:45;1.80;;;0.50;;
22160;SDS011;49035;48.812;11.762;2023-12-22T05:17:11;0.40;;;0.40;;
22160;SDS011;49035;48.812;11.762;2023-12-22T05:19:37;0.80;;;0.50;;
22160;SDS011;49035;48.812;11.762;2023-12-22T05:22:03;0.73;;;0.40;;
22160;SDS011;49035;48.812;11.762;2023-12-22T05:24:28;0.43;;;0.43;;
22160;SDS011;49035;48.812;11.762;2023-12-22T05:26:54;0.70;;;0.47;;
22160;SDS011;49035;48.812;11.762;2023-12-22T05:29:19;0.67;;;0.60;;
22160;SDS011;49035;48.812;11.762;2023-12-22T05:31:45;0.60;;;0.60;;
22160;SDS011;49035;48.812;11.762;2023-12-22T05:34:11;0.90;;;0.73;;
22160;SDS011;49035;48.812;11.762;2023-12-22T05:36:36;0.63;;;0.63;;
22160;SDS011;49035;48.812;11.762;2023-12-22T05:39:02;3.93;;;0.60;;
22160;SDS011;49035;48.812;11.762;2023-12-22T05:41:28;1.20;;;0.60;;
22160;SDS011;49035;48.812;11.762;2023-12-22T05:43:53;3.03;;;0.70;;
22160;SDS011;49035;48.812;11.762;2023-12-22T05:46:19;0.73;;;0.73;;
22160;SDS011;49035;48.812;11.762;2023-12-22T05:48:44;2.67;;;0.90;;
22160;SDS011;49035;48.812;11.762;2023-12-22T05:51:10;1.63;;;0.63;;
22160;SDS011;49035;48.812;11.762;2023-12-22T05:53:41;0.83;;;0.50;;
22160;SDS011;49035;48.812;11.762;2023-12-22T05:56:16;0.60;;;0.60;;
22160;SDS011;49035;48.812;11.762;2023-12-22T05:58:45;1.17;;;0.80;;
22160;SDS011;49035;48.812;11.762;2023-12-22T06:01:17;0.53;;;0.53;;
22160;SDS011;49035;48.812;11.762;2023-12-22T06:03:46;0.77;;;0.50;;
22160;SDS011;49035;48.812;11.762;2023-12-22T06:06:13;1.37;;;0.60;;
22160;SDS011;49035;48.812;11.762;2023-12-22T06:08:39;3.90;;;0.70;;
22160;SDS011;49035;48.812;11.762;2023-12-22T06:11:04;1.00;;;0.70;;
22160;SDS011;49035;48.812;11.762;2023-12-22T06:13:30;0.50;;;0.50;;
22160;SDS011;49035;48.812;11.762;2023-12-22T06:15:56;1.00;;;0.90;;
22160;SDS011;49035;48.812;11.762;2023-12-22T06:18:22;0.40;;;0.40;;
22160;SDS011;49035;48.812;11.762;2023-12-22T06:20:48;0.43;;;0.43;;
22160;SDS011;49035;48.812;11.762;2023-12-22T06:23:13;0.40;;;0.40;;
22160;SDS011;49035;48.812;11.762;2023-12-22T06:25:39;1.40;;;0.63;;
22160;SDS011;49035;48.812;11.762;2023-12-22T06:28:05;0.50;;;0.50;;
22160;SDS011;49035;48.812;11.762;2023-12-22T06:30:30;0.63;;;0.53;;
22160;SDS011;49035;48.812;11.762;2023-12-22T06:32:56;0.77;;;0.53;;
22160;SDS011;49035;48.812;11.762;2023-12-22T06:35:25;0.70;;;0.47;;
22160;SDS011;49035;48.812;11.762;2023-12-22T06:37:51;0.87;;;0.67;;
22160;SDS011;49035;48.812;11.762;2023-12-22T06:40:17;0.80;;;0.60;;
22160;SDS011;49035;48.812;11.762;2023-12-22T06:42:44;0.50;;;0.50;;
22160;SDS011;49035;48.812;11.762;2023-12-22T06:45:09;0.50;;;0.50;;
22160;SDS011;49035;48.812;11.762;2023-12-22T06:47:35;0.50;;;0.50;;
22160;SDS011;49035;48.812;11.762;2023-12-22T06:50:01;0.60;;;0.60;;
22160;SDS011;49035;48.812;11.762;2023-12-22T06:52:27;0.50;;;0.50;;
22160;SDS011;49035;48.812;11.762;2023-12-22T06:54:53;0.50;;;0.50;;
22160;SDS011;49035;48.812;11.762;2023-12-22T06:57:19;2.10;;;0.60;;
22160;SDS011;49035;48.812;11.762;2023-12-22T06:59:45;1.13;;;0.57;;
22160;SDS011;49035;48.812;11.762;2023-12-22T07:02:14;0.50;;;0.50;;
22160;SDS011;49035;48.812;11.762;2023-12-22T07:04:40;0.50;;;0.50;;
22160;SDS011;49035;48.812;11.762;2023-12-22T07:07:05;1.60;;;0.70;;
22160;SDS011;49035;48.812;11.762;2023-12-22T07:09:31;1.07;;;0.57;;
22160;SDS011;49035;48.812;11.762;2023-12-22T07:11:57;0.60;;;0.60;;
22160;SDS011;49035;48.812;11.762;2023-12-22T07:14:23;3.00;;;0.77;;
22160;SDS011;49035;48.812;11.762;2023-12-22T07:16:49;3.10;;;0.90;;
22160;SDS011;49035;48.812;11.762;2023-12-22T07:19:15;1.50;;;0.80;;
22160;SDS011;49035;48.812;11.762;2023-12-22T07:21:40;1.07;;;0.90;;
22160;SDS011;49035;48.812;11.762;2023-12-22T07:24:06;3.07;;;1.20;;
22160;SDS011;49035;48.812;11.762;2023-12-22T07:26:32;3.23;;;0.93;;
22160;SDS011;49035;48.812;11.762;2023-12-22T07:28:57;1.30;;;0.83;;
22160;SDS011;49035;48.812;11.762;2023-12-22T07:31:26;5.27;;;1.40;;
22160;SDS011;49035;48.812;11.762;2023-12-22T07:33:52;4.60;;;1.33;;
22160;SDS011;49035;48.812;11.762;2023-12-22T07:36:17;5.83;;;1.30;;
22160;SDS011;49035;48.812;11.762;2023-12-22T07:38:49;1.77;;;1.03;;
22160;SDS011;49035;48.812;11.762;2023-12-22T07:41:14;3.47;;;1.30;;
22160;SDS011;49035;48.812;11.762;2023-12-22T07:43:40;3.67;;;1.23;;
22160;SDS011;49035;48.812;11.762;2023-12-22T07:46:07;3.37;;;1.50;;
22160;SDS011;49035;48.812;11.762;2023-12-22T07:48:34;5.53;;;1.30;;
22160;SDS011;49035;48.812;11.762;2023-12-22T07:50:59;8.07;;;1.07;;
22160;SDS011;49035;48.812;11.762;2023-12-22T07:53:25;3.00;;;1.10;;
22160;SDS011;49035;48.812;11.762;2023-12-22T07:55:50;3.90;;;1.10;;
22160;SDS011;49035;48.812;11.762;2023-12-22T07:58:16;1.40;;;1.00;;
22160;SDS011;49035;48.812;11.762;2023-12-22T08:00:42;2.03;;;1.60;;
22160;SDS011;49035;48.812;11.762;2023-12-22T08:03:08;1.97;;;0.90;;
22160;SDS011;49035;48.812;11.762;2023-12-22T08:05:34;2.00;;;1.00;;
22160;SDS011;49035;48.812;11.762;2023-12-22T08:08:00;1.83;;;0.80;;
22160;SDS011;49035;48.812;11.762;2023-12-22T08:10:25;1.30;;;0.90;;
22160;SDS011;49035;48.812;11.762;2023-12-22T08:12:52;0.73;;;0.73;;
22160;SDS011;49035;48.812;11.762;2023-12-22T08:15:18;2.93;;;0.70;;
22160;SDS011;49035;48.812;11.762;2023-12-22T08:17:46;2.03;;;1.33;;
22160;SDS011;49035;48.812;11.762;2023-12-22T08:20:16;1.03;;;0.90;;
22160;SDS011;49035;48.812;11.762;2023-12-22T08:22:45;1.67;;;1.03;;
22160;SDS011;49035;48.812;11.762;2023-12-22T08:25:11;1.80;;;0.60;;
22160;SDS011;49035;48.812;11.762;2023-12-22T08:27:37;2.40;;;0.93;;
22160;SDS011;49035;48.812;11.762;2023-12-22T08:30:03;1.27;;;1.00;;
22160;SDS011;49035;48.812;11.762;2023-12-22T08:32:29;5.20;;;1.80;;
22160;SDS011;49035;48.812;11.762;2023-12-22T08:34:54;2.73;;;0.90;;
22160;SDS011;49035;48.812;11.762;2023-12-22T08:37:20;2.77;;;1.10;;
22160;SDS011;49035;48.812;11.762;2023-12-22T08:39:45;0.70;;;0.70;;
22160;SDS011;49035;48.812;11.762;2023-12-22T08:42:11;6.57;;;1.10;;
22160;SDS011;49035;48.812;11.762;2023-12-22T08:44:37;6.37;;;1.00;;
22160;SDS011;49035;48.812;11.762;2023-12-22T08:47:07;5.53;;;1.20;;
22160;SDS011;49035;48.812;11.762;2023-12-22T08:49:32;4.33;;;1.00;;
22160;SDS011;49035;48.812;11.762;2023-12-22T08:51:58;3.13;;;0.80;;
22160;SDS011;49035;48.812;11.762;2023-12-22T08:54:23;2.13;;;0.90;;
22160;SDS011;49035;48.812;11.762;2023-12-22T08:56:49;3.17;;;1.33;;
22160;SDS011;49035;48.812;11.762;2023-12-22T08:59:14;1.93;;;0.80;;
22160;SDS011;49035;48.812;11.762;2023-12-22T09:01:40;2.40;;;0.90;;
22160;SDS011;49035;48.812;11.762;2023-12-22T09:04:07;2.07;;;0.90;;
22160;SDS011;49035;48.812;11.762;2023-12-22T09:06:34;1.20;;;0.80;;
22160;SDS011;49035;48.812;11.762;2023-12-22T09:08:59;3.03;;;0.90;;
22160;SDS011;49035;48.812;11.762;2023-12-22T09:11:25;0.97;;;0.70;;
22160;SDS011;49035;48.812;11.762;2023-12-22T09:13:50;2.10;;;0.93;;
22160;SDS011;49035;48.812;11.762;2023-12-22T09:16:20;2.63;;;1.10;;
22160;SDS011;49035;48.812;11.762;2023-12-22T09:18:52;2.92;;;0.98;;
22160;SDS011;49035;48.812;11.762;2023-12-22T09:21:17;2.13;;;0.80;;
22160;SDS011;49035;48.812;11.762;2023-12-22T09:23:44;5.97;;;1.23;;
22160;SDS011;49035;48.812;11.762;2023-12-22T09:26:13;1.15;;;0.82;;
22160;SDS011;49035;48.812;11.762;2023-12-22T09:28:39;3.00;;;0.73;;
22160;SDS011;49035;48.812;11.762;2023-12-22T09:31:06;1.30;;;0.70;;
22160;SDS011;49035;48.812;11.762;2023-12-22T09:33:32;2.60;;;0.98;;
22160;SDS011;49035;48.812;11.762;2023-12-22T09:35:57;1.27;;;0.80;;
22160;SDS011;49035;48.812;11.762;2023-12-22T09:38:23;2.63;;;0.88;;
22160;SDS011;49035;48.812;11.762;2023-12-22T09:40:49;2.00;;;0.88;;
22160;SDS011;49035;48.812;11.762;2023-12-22T09:43:15;1.33;;;0.65;;
22160;SDS011;49035;48.812;11.762;2023-12-22T09:45:44;1.50;;;0.80;;
22160;SDS011;49035;48.812;11.762;2023-12-22T09:48:12;2.83;;;1.05;;
22160;SDS011;49035;48.812;11.762;2023-12-22T09:50:42;2.90;;;1.20;;
22160;SDS011;49035;48.812;11.762;2023-12-22T09:53:08;3.22;;;1.10;;
22160;SDS011;49035;48.812;11.762;2023-12-22T09:55:37;2.65;;;1.27;;
22160;SDS011;49035;48.812;11.762;2023-12-22T09:58:04;3.97;;;1.20;;
22160;SDS011;49035;48.812;11.762;2023-12-22T10:00:31;2.70;;;1.08;;
22160;SDS011;49035;48.812;11.762;2023-12-22T10:02:58;1.73;;;0.80;;
22160;SDS011;49035;48.812;11.762;2023-12-22T10:05:23;3.00;;;1.10;;
22160;SDS011;49035;48.812;11.762;2023-12-22T10:07:49;5.70;;;1.15;;
22160;SDS011;49035;48.812;11.762;2023-12-22T10:10:15;3.40;;;1.20;;
22160;SDS011;49035;48.812;11.762;2023-12-22T10:12:41;3.53;;;1.42;;
22160;SDS011;49035;48.812;11.762;2023-12-22T10:15:10;8.97;;;1.73;;
22160;SDS011;49035;48.812;11.762;2023-12-22T10:17:37;5.23;;;1.47;;
22160;SDS011;49035;48.812;11.762;2023-12-22T10:20:04;4.35;;;1.60;;
22160;SDS011;49035;48.812;11.762;2023-12-22T10:22:30;5.20;;;1.50;;
22160;SDS011;49035;48.812;11.762;2023-12-22T10:24:55;4.82;;;1.63;;
22160;SDS011;49035;48.812;11.762;2023-12-22T10:27:21;4.80;;;1.20;;
22160;SDS011;49035;48.812;11.762;2023-12-22T10:29:50;4.30;;;1.38;;
22160;SDS011;49035;48.812;11.762;2023-12-22T10:32:19;3.97;;;1.35;;
22160;SDS011;49035;48.812;11.762;2023-12-22T10:34:51;2.35;;;1.30;;
22160;SDS011;49035;48.812;11.762;2023-12-22T10:37:17;6.00;;;1.15;;
22160;SDS011;49035;48.812;11.762;2023-12-22T10:39:42;6.68;;;1.90;;
22160;SDS011;49035;48.812;11.762;2023-12-22T10:42:08;7.38;;;1.88;;
22160;SDS011;49035;48.812;11.762;2023-12-22T10:44:34;4.88;;;1.38;;
22160;SDS011;49035;48.812;11.762;2023-12-22T10:47:04;4.22;;;1.63;;
22160;SDS011;49035;48.812;11.762;2023-12-22T10:49:30;5.13;;;1.70;;
22160;SDS011;49035;48.812;11.762;2023-12-22T10:51:56;4.03;;;1.38;;
22160;SDS011;49035;48.812;11.762;2023-12-22T10:54:22;5.07;;;1.20;;
22160;SDS011;49035;48.812;11.762;2023-12-22T10:56:47;3.97;;;1.27;;
22160;SDS011;49035;48.812;11.762;2023-12-22T10:59:18;3.60;;;1.30;;
22160;SDS011;49035;48.812;11.762;2023-12-22T11:01:45;5.72;;;1.33;;
22160;SDS011;49035;48.812;11.762;2023-12-22T11:04:13;3.15;;;1.08;;
22160;SDS011;49035;48.812;11.762;2023-12-22T11:06:42;3.75;;;1.17;;
22160;SDS011;49035;48.812;11.762;2023-12-22T11:09:09;1.73;;;0.82;;
22160;SDS011;49035;48.812;11.762;2023-12-22T11:11:39;4.47;;;1.27;;
22160;SDS011;49035;48.812;11.762;2023-12-22T11:14:05;7.25;;;1.30;;
22160;SDS011;49035;48.812;11.762;2023-12-22T11:16:33;3.28;;;1.30;;
22160;SDS011;49035;48.812;11.762;2023-12-22T11:19:03;2.38;;;1.10;;
22160;SDS011;49035;48.812;11.762;2023-12-22T11:21:29;3.15;;;1.20;;
22160;SDS011;49035;48.812;11.762;2023-12-22T11:23:55;1.40;;;0.90;;
22160;SDS011;49035;48.812;11.762;2023-12-22T11:26:24;2.85;;;1.25;;
22160;SDS011;49035;48.812;11.762;2023-12-22T11:28:51;2.63;;;1.00;;
22160;SDS011;49035;48.812;11.762;2023-12-22T11:31:17;5.18;;;1.30;;
22160;SDS011;49035;48.812;11.762;2023-12-22T11:33:44;2.72;;;0.90;;
22160;SDS011;49035;48.812;11.762;2023-12-22T11:36:14;3.22;;;1.13;;
22160;SDS011;49035;48.812;11.762;2023-12-22T11:38:41;2.05;;;1.38;;
22160;SDS011;49035;48.812;11.762;2023-12-22T11:41:09;1.95;;;1.00;;
22160;SDS011;49035;48.812;11.762;2023-12-22T11:43:38;2.10;;;1.10;;
22160;SDS011;49035;48.812;11.762;2023-12-22T11:46:05;1.13;;;0.73;;
22160;SDS011;49035;48.812;11.762;2023-12-22T11:48:30;1.17;;;0.75;;
22160;SDS011;49035;48.812;11.762;2023-12-22T11:50:56;1.70;;;0.80;;
22160;SDS011;49035;48.812;11.762;2023-12-22T11:53:23;0.70;;;0.70;;
22160;SDS011;49035;48.812;11.762;2023-12-22T11:56:04;1.67;;;0.93;;
22160;SDS011;49035;48.812;11.762;2023-12-22T12:01:15;2.73;;;0.80;;
22160;SDS011;49035;48.812;11.762;2023-12-22T12:03:49;2.47;;;0.82;;
22160;SDS011;49035;48.812;11.762;2023-12-22T12:06:21;1.95;;;1.00;;
22160;SDS011;49035;48.812;11.762;2023-12-22T12:08:50;3.50;;;1.27;;
22160;SDS011;49035;48.812;11.762;2023-12-22T12:11:16;1.92;;;1.00;;
22160;SDS011;49035;48.812;11.762;2023-12-22T12:13:43;4.18;;;1.40;;
22160;SDS011;49035;48.812;11.762;2023-12-22T12:16:12;6.75;;;1.33;;
22160;SDS011;49035;48.812;11.762;2023-12-22T12:18:39;3.45;;;1.02;;
22160;SDS011;49035;48.812;11.762;2023-12-22T12:21:08;5.45;;;1.10;;
22160;SDS011;49035;48.812;11.762;2023-12-22T12:23:36;6.82;;;1.25;;
22160;SDS011;49035;48.812;11.762;2023-12-22T12:26:03;2.85;;;1.27;;
22160;SDS011;49035;48.812;11.762;2023-12-22T12:28:31;4.25;;;1.70;;
22160;SDS011;49035;48.812;11.762;2023-12-22T12:33:25;6.63;;;1.53;;
22160;SDS011;49035;48.812;11.762;2023-12-22T12:35:52;8.68;;;3.03;;
22160;SDS011;49035;48.812;11.762;2023-12-22T12:38:37;10.07;;;2.78;;
22160;SDS011;49035;48.812;11.762;2023-12-22T12:41:08;10.13;;;3.35;;
22160;SDS011;49035;48.812;11.762;2023-12-22T12:43:37;13.07;;;3.30;;
22160;SDS011;49035;48.812;11.762;2023-12-22T12:46:08;7.85;;;2.65;;
22160;SDS011;49035;48.812;11.762;2023-12-22T12:48:34;10.40;;;2.58;;
22160;SDS011;49035;48.812;11.762;2023-12-22T12:51:06;9.25;;;2.70;;
22160;SDS011;49035;48.812;11.762;2023-12-22T12:53:32;10.45;;;2.58;;
22160;SDS011;49035;48.812;11.762;2023-12-22T12:55:59;11.43;;;2.75;;
22160;SDS011;49035;48.812;11.762;2023-12-22T12:58:31;9.43;;;2.85;;
22160;SDS011;49035;48.812;11.762;2023-12-22T13:01:07;10.35;;;2.40;;
22160;SDS011;49035;48.812;11.762;2023-12-22T13:03:52;6.10;;;2.45;;
22160;SDS011;49035;48.812;11.762;2023-12-22T13:06:21;6.88;;;1.85;;
22160;SDS011;49035;48.812;11.762;2023-12-22T13:08:48;8.88;;;2.33;;
22160;SDS011;49035;48.812;11.762;2023-12-22T13:11:15;13.23;;;2.33;;
22160;SDS011;49035;48.812;11.762;2023-12-22T13:13:42;8.68;;;2.05;;
22160;SDS011;49035;48.812;11.762;2023-12-22T13:16:08;13.32;;;2.47;;
22160;SDS011;49035;48.812;11.762;2023-12-22T13:18:34;7.43;;;2.38;;
22160;SDS011;49035;48.812;11.762;2023-12-22T13:21:00;4.00;;;1.77;;
22160;SDS011;49035;48.812;11.762;2023-12-22T13:23:28;10.70;;;3.30;;
22160;SDS011;49035;48.812;11.762;2023-12-22T13:25:53;7.13;;;1.85;;
22160;SDS011;49035;48.812;11.762;2023-12-22T13:28:26;6.88;;;1.83;;
22160;SDS011;49035;48.812;11.762;2023-12-22T13:30:55;12.57;;;3.13;;
22160;SDS011;49035;48.812;11.762;2023-12-22T13:33:20;4.68;;;1.52;;
22160;SDS011;49035;48.812;11.762;2023-12-22T13:35:46;6.78;;;1.83;;
22160;SDS011;49035;48.812;11.762;2023-12-22T13:38:13;8.77;;;1.75;;
22160;SDS011;49035;48.812;11.762;2023-12-22T13:40:39;6.80;;;1.65;;
22160;SDS011;49035;48.812;11.762;2023-12-22T13:43:11;10.80;;;2.80;;
22160;SDS011;49035;48.812;11.762;2023-12-22T13:45:36;8.85;;;2.28;;
22160;SDS011;49035;48.812;11.762;2023-12-22T13:48:02;9.52;;;2.20;;
22160;SDS011;49035;48.812;11.762;2023-12-22T13:50:28;7.68;;;2.28;;
22160;SDS011;49035;48.812;11.762;2023-12-22T13:52:54;16.42;;;2.22;;
22160;SDS011;49035;48.812;11.762;2023-12-22T13:55:20;10.77;;;2.10;;
22160;SDS011;49035;48.812;11.762;2023-12-22T13:57:47;7.28;;;2.40;;
22160;SDS011;49035;48.812;11.762;2023-12-22T14:02:45;5.97;;;2.03;;
22160;SDS011;49035;48.812;11.762;2023-12-22T14:05:11;7.93;;;2.45;;
22160;SDS011;49035;48.812;11.762;2023-12-22T14:07:37;5.00;;;1.80;;
22160;SDS011;49035;48.812;11.762;2023-12-22T14:10:06;6.40;;;1.80;;
22160;SDS011;49035;48.812;11.762;2023-12-22T14:12:32;8.82;;;2.30;;
22160;SDS011;49035;48.812;11.762;2023-12-22T14:14:58;8.05;;;1.95;;
22160;SDS011;49035;48.812;11.762;2023-12-22T14:17:23;7.68;;;1.63;;
22160;SDS011;49035;48.812;11.762;2023-12-22T14:19:49;4.07;;;1.10;;
22160;SDS011;49035;48.812;11.762;2023-12-22T14:22:15;5.30;;;1.42;;
22160;SDS011;49035;48.812;11.762;2023-12-22T14:24:40;3.70;;;1.70;;
22160;SDS011;49035;48.812;11.762;2023-12-22T14:27:06;3.55;;;1.15;;
22160;SDS011;49035;48.812;11.762;2023-12-22T14:29:32;5.63;;;1.40;;
22160;SDS011;49035;48.812;11.762;2023-12-22T14:31:58;5.55;;;1.08;;
22160;SDS011;49035;48.812;11.762;2023-12-22T14:34:23;6.45;;;1.85;;
22160;SDS011;49035;48.812;11.762;2023-12-22T14:36:49;3.95;;;1.50;;
22160;SDS011;49035;48.812;11.762;2023-12-22T14:39:15;3.53;;;1.33;;